Time;durP1;ratioP1;P1;durP2;ratioP2;P2;SDS_P1;SDS_P2;PMS_P1;PMS_P2;Temp;Humidity;BMP_temperature;BMP_pressure;BME280_temperature;BME280_humidity;BME280_pressure;Samples;Min_cycle;Max_cycle;Signal;HPM_P1;HPM_P2
2023/04/17 00:02:37;;;;;;;;;;;;;;;;;;137577;1273;22262;-80
2023/04/17 00:05:38;;;;;;;;;;;;;;;;;;137607;1273;22927;-81
2023/04/17 00:08:39;;;;;;;;;;;;;;;;;;137575;1273;22658;-80
2023/04/17 00:11:40;;;;;;;;;;;;;;;;;;137646;1273;22913;-81
2023/04/17 00:14:42;;;;;;;;;;;;;;;;;;137654;1273;22363;-80
2023/04/17 00:17:43;;;;;;;;;;;;;;;;;;137635;1273;22800;-80
2023/04/17 00:20:44;;;;;;;;;;;;;;;;;;137627;1270;22654;-80
2023/04/17 00:23:45;;;;;;;;;;;;;;;;;;137659;1273;22273;-80
2023/04/17 00:26:46;;;;;;;;;;;;;;;;;;137631;1273;22270;-80
2023/04/17 00:29:48;;;;;;;;;;;;;;;;;;137637;1273;22310;-80
2023/04/17 00:32:49;;;;;;;;;;;;;;;;;;137625;1273;22223;-80
2023/04/17 00:35:50;;;;;;;;;;;;;;;;;;137637;1273;22480;-80
2023/04/17 00:38:51;;;;;;;;;;;;;;;;;;137628;1273;22786;-80
2023/04/17 00:41:52;;;;;;;;;;;;;;;;;;137663;1273;22188;-80
2023/04/17 00:44:53;;;;;;;;;;;;;;;;;;137662;1269;22755;-80
2023/04/17 00:47:54;;;;;;;;;;;;;;;;;;137654;1273;22335;-80
2023/04/17 00:51:00;;;;;;;;;;;;;;;;;;137601;1272;22217;-81
2023/04/17 00:54:01;;;;;;;;;;;;;;;;;;137631;1273;22272;-81
2023/04/17 00:57:03;;;;;;;;;;;;;;;;;;137570;1273;22206;-81
2023/04/17 01:00:04;;;;;;;;;;;;;;;;;;137628;1273;22189;-81
2023/04/17 01:03:05;;;;;;;;;;;;;;;;;;137586;1273;22095;-81
2023/04/17 01:06:06;;;;;;;;;;;;;;;;;;137592;1273;22397;-81
2023/04/17 01:09:07;;;;;;;;;;;;;;;;;;137630;1273;22258;-81
2023/04/17 01:12:09;;;;;;;;;;;;;;;;;;137617;1273;22255;-81
2023/04/17 01:15:10;;;;;;;;;;;;;;;;;;137610;1273;22206;-81
2023/04/17 01:18:11;;;;;;;;;;;;;;;;;;137624;1273;22263;-81
2023/04/17 01:21:12;;;;;;;;;;;;;;;;;;137633;1271;22217;-81
2023/04/17 01:24:13;;;;;;;;;;;;;;;;;;137611;1273;22280;-80
2023/04/17 01:27:14;;;;;;;;;;;;;;;;;;137606;1273;22225;-81
2023/04/17 01:30:15;;;;;;;;;;;;;;;;;;137603;1273;22277;-81
2023/04/17 01:33:16;;;;;;;;;;;;;;;;;;137578;1273;22627;-81
2023/04/17 01:36:17;;;;;;;;;;;;;;;;;;137566;1273;22368;-81
2023/04/17 01:39:18;;;;;;;;;;;;;;;;;;137634;1273;22176;-83
2023/04/17 01:42:19;;;;;;;;;;;;;;;;;;137645;1273;22287;-82
2023/04/17 01:45:20;;;;;;;;;;;;;;;;;;137608;1273;22201;-82
2023/04/17 01:48:21;;;;;;;;;;;;;;;;;;137611;1273;22183;-82
2023/04/17 01:51:22;;;;;;;;;;;;;;;;;;137620;1273;22181;-82
2023/04/17 01:54:24;;;;;;;;;;;;;;;;;;137579;1273;22170;-82
2023/04/17 01:57:25;;;;;;;;;;;;;;;;;;137619;1273;22190;-82
2023/04/17 02:00:26;;;;;;;;;;;;;;;;;;137627;1273;22270;-82
2023/04/17 02:03:27;;;;;;;;;;;;;;;;;;137624;1273;22183;-82
2023/04/17 02:06:28;;;;;;;;;;;;;;;;;;137554;1273;22393;-82
2023/04/17 02:09:29;;;;;;;;;;;;;;;;;;137633;1273;22297;-80
2023/04/17 02:12:30;;;;;;;;;;;;;;;;;;137637;1273;22271;-82
2023/04/17 02:15:31;;;;;;;;;;;;;;;;;;137633;1273;22297;-82
2023/04/17 02:18:32;;;;;;;;;;;;;;;;;;137625;1273;22188;-82
2023/04/17 02:21:33;;;;;;;;;;;;;;;;;;137638;1273;22271;-80
2023/04/17 02:24:34;;;;;;;;;;;;;;;;;;137686;1273;22603;-81
2023/04/17 02:27:36;;;;;;;;;;;;;;;;;;137647;1273;22192;-83
2023/04/17 02:30:37;;;;;;;;;;;;;;;;;;137652;1273;22232;-82
2023/04/17 02:33:38;;;;;;;;;;;;;;;;;;137596;1273;22256;-82
2023/04/17 02:36:39;;;;;;;;;;;;;;;;;;137600;1273;22381;-82
2023/04/17 02:39:40;;;;;;;;;;;;;;;;;;137619;1273;22205;-82
2023/04/17 02:42:41;;;;;;;;;;;;;;;;;;137612;1273;22316;-82
2023/04/17 02:45:42;;;;;;;;;;;;;;;;;;137608;1263;22270;-82
2023/04/17 02:48:43;;;;;;;;;;;;;;;;;;137581;1273;22197;-82
2023/04/17 02:51:44;;;;;;;;;;;;;;;;;;137607;1273;22278;-82
2023/04/17 02:54:45;;;;;;;;;;;;;;;;;;137610;1273;22173;-81
2023/04/17 02:57:49;;;;;;;;;;;;;;;;;;137605;1273;22287;-82
2023/04/17 03:00:50;;;;;;;;;;;;;;;;;;137610;1269;22213;-83
2023/04/17 03:03:54;;;;;;;;;;;;;;;;;;137643;1273;22238;-82
2023/04/17 03:06:55;;;;;;;;;;;;;;;;;;137647;1273;22367;-83
2023/04/17 03:09:56;;;;;;;;;;;;;;;;;;137601;1269;22204;-82
2023/04/17 03:12:57;;;;;;;;;;;;;;;;;;137621;1273;22259;-82
2023/04/17 03:15:59;;;;;;;;;;;;;;;;;;137619;1273;22260;-82
2023/04/17 03:19:02;;;;;;;;;;;;;;;;;;137659;1273;22173;-83
2023/04/17 03:22:03;;;;;;;;;;;;;;;;;;137632;1273;22167;-83
2023/04/17 03:25:04;;;;;;;;;;;;;;;;;;137635;1273;22377;-82
2023/04/17 03:28:05;;;;;;;;;;;;;;;;;;137598;1273;22196;-83
2023/04/17 03:31:06;;;;;;;;;;;;;;;;;;137618;1273;22253;-83
2023/04/17 03:34:07;;;;;;;;;;;;;;;;;;137582;1273;22418;-83
2023/04/17 03:37:09;;;;;;;;;;;;;;;;;;137631;1273;22387;-82
2023/04/17 03:40:10;;;;;;;;;;;;;;;;;;137611;1273;22173;-83
2023/04/17 03:43:11;;;;;;;;;;;;;;;;;;137622;1273;22282;-82
2023/04/17 03:46:12;;;;;;;;;;;;;;;;;;137633;1273;22201;-82
2023/04/17 03:49:13;;;;;;;;;;;;;;;;;;137636;1273;22296;-82
2023/04/17 03:52:14;;;;;;;;;;;;;;;;;;137555;1273;22733;-82
2023/04/17 03:55:16;;;;;;;;;;;;;;;;;;137554;1273;22727;-81
2023/04/17 03:58:17;;;;;;;;;;;;;;;;;;137559;1273;22152;-81
2023/04/17 04:01:18;;;;;;;;;;;;;;;;;;137548;1273;22241;-82
2023/04/17 04:04:19;;;;;;;;;;;;;;;;;;137533;1273;22280;-82
2023/04/17 04:07:20;;;;;;;;;;;;;;;;;;137515;1273;22398;-83
2023/04/17 04:10:23;;;;;;;;;;;;;;;;;;137554;1263;22176;-83
2023/04/17 04:13:24;;;;;;;;;;;;;;;;;;137580;1273;22185;-83
2023/04/17 04:16:26;;;;;;;;;;;;;;;;;;137562;1269;22205;-82
2023/04/17 04:19:27;;;;;;;;;;;;;;;;;;137562;1273;22233;-82
2023/04/17 04:22:28;;;;;;;;;;;;;;;;;;137614;1273;22270;-82
2023/04/17 04:25:29;;;;;;;;;;;;;;;;;;137576;1273;22288;-80
2023/04/17 04:28:30;;;;;;;;;;;;;;;;;;137583;1273;22188;-82
2023/04/17 04:31:31;;;;;;;;;;;;;;;;;;137507;1273;22262;-82
2023/04/17 04:34:35;;;;;;;;;;;;;;;;;;137496;1270;22184;-82
2023/04/17 04:38:12;;;;;;;;;;;;;;;;;;137509;1272;22451;-81
2023/04/17 04:41:14;;;;;;;;;;;;;;;;;;137562;1273;22327;-82
2023/04/17 04:44:17;;;;;;;;;;;;;;;;;;137528;1273;22286;-82
2023/04/17 04:47:19;;;;;;;;;;;;;;;;;;137533;1273;22375;-82
2023/04/17 04:50:20;;;;;;;;;;;;;;;;;;137541;1273;22191;-82
2023/04/17 04:53:21;;;;;;;;;;;;;;;;;;137523;1273;22178;-82
2023/04/17 04:56:22;;;;;;;;;;;;;;;;;;137510;1270;22216;-82
2023/04/17 04:59:24;;;;;;;;;;;;;;;;;;137540;1273;22247;-83
2023/04/17 05:02:26;;;;;;;;;;;;;;;;;;137570;1273;22181;-83
2023/04/17 05:05:27;;;;;;;;;;;;;;;;;;137588;1273;22770;-82
2023/04/17 05:08:28;;;;;;;;;;;;;;;;;;137523;1273;22348;-83
2023/04/17 05:11:32;;;;;;;;;;;;;;;;;;137576;1273;22191;-83
2023/04/17 05:14:33;;;;;;;;;;;;;;;;;;137554;1273;22198;-84
2023/04/17 05:17:35;;;;;;;;;;;;;;;;;;137520;1273;22281;-82
2023/04/17 05:20:41;;;;;;;;;;;;;;;;;;137509;1273;22346;-83
2023/04/17 05:23:42;;;;;;;;;;;;;;;;;;137537;1273;22178;-83
2023/04/17 05:26:43;;;;;;;;;;;;;;;;;;137541;1263;22219;-83
2023/04/17 05:29:45;;;;;;;;;;;;;;;;;;137551;1273;22279;-82
2023/04/17 05:32:47;;;;;;;;;;;;;;;;;;137535;1273;22208;-81
2023/04/17 05:35:48;;;;;;;;;;;;;;;;;;137563;1273;22789;-83
2023/04/17 05:38:50;;;;;;;;;;;;;;;;;;137586;1273;22291;-82
2023/04/17 05:41:51;;;;;;;;;;;;;;;;;;137494;1273;22395;-82
2023/04/17 05:44:52;;;;;;;;;;;;;;;;;;137479;1273;22335;-82
2023/04/17 05:47:54;;;;;;;;;;;;;;;;;;137488;1273;22157;-82
2023/04/17 05:50:58;;;;;;;;;;;;;;;;;;137505;1273;22174;-82
2023/04/17 05:54:01;;;;;;;;;;;;;;;;;;137535;1273;22200;-82
2023/04/17 05:57:05;;;;;;;;;;;;;;;;;;137488;1273;22248;-82
2023/04/17 06:00:26;;;;;;;;;;;;;;;;;;137452;1272;22419;-82
2023/04/17 06:03:27;;;;;;;;;;;;;;;;;;137508;1272;22727;-83
2023/04/17 06:06:28;;;;;;;;;;;;;;;;;;137534;1273;22427;-82
2023/04/17 06:09:29;;;;;;;;;;;;;;;;;;137526;1273;22232;-83
2023/04/17 06:12:30;;;;;;;;;;;;;;;;;;137479;1273;23022;-82
2023/04/17 06:15:32;;;;;;;;;;;;;;;;;;137504;1270;22330;-83
2023/04/17 06:18:33;;;;;;;;;;;;;;;;;;137518;1273;22306;-82
2023/04/17 06:21:34;;;;;;;;;;;;;;;;;;137550;1273;22163;-81
2023/04/17 06:24:36;;;;;;;;;;;;;;;;;;137520;1273;22235;-84
2023/04/17 06:27:37;;;;;;;;;;;;;;;;;;137514;1263;22585;-83
2023/04/17 06:30:38;;;;;;;;;;;;;;;;;;137602;1273;22180;-82
2023/04/17 06:33:40;;;;;;;;;;;;;;;;;;137560;1273;22244;-82
2023/04/17 06:36:41;;;;;;;;;;;;;;;;;;137509;1273;22345;-82
2023/04/17 06:39:42;;;;;;;;;;;;;;;;;;137540;1273;22257;-83
2023/04/17 06:42:43;;;;;;;;;;;;;;;;;;137511;1273;22266;-82
2023/04/17 06:45:44;;;;;;;;;;;;;;;;;;137546;1273;22175;-80
2023/04/17 06:48:45;;;;;;;;;;;;;;;;;;137536;1273;22260;-82
2023/04/17 06:51:46;;;;;;;;;;;;;;;;;;137530;1273;22229;-85
2023/04/17 06:54:47;;;;;;;;;;;;;;;;;;137499;1273;22301;-82
2023/04/17 06:57:51;;;;;;;;;;;;;;;;;;137501;1273;22259;-82
2023/04/17 07:00:52;;;;;;;;;;;;;;;;;;137474;1273;22251;-82
2023/04/17 07:03:53;;;;;;;;;;;;;;;;;;137488;1273;22196;-83
2023/04/17 07:06:55;;;;;;;;;;;;;;;;;;137524;1267;22340;-82
2023/04/17 07:09:56;;;;;;;;;;;;;;;;;;137347;1269;203443;-82
2023/04/17 07:12:58;;;;;;;;;;;;;;;;;;137505;1272;22285;-83
2023/04/17 07:16:00;;;;;;;;;;;;;;;;;;137520;1273;22307;-83
2023/04/17 07:19:01;;;;;;;;;;;;;;;;;;137536;1273;22242;-82
2023/04/17 07:22:04;;;;;;;;;;;;;;;;;;137495;1270;22290;-82
2023/04/17 07:25:05;;;;;;;;;;;;;;;;;;137476;1273;22679;-83
2023/04/17 07:28:06;;;;;;;;;;;;;;;;;;137520;1272;22269;-82
2023/04/17 07:31:08;;;;;;;;;;;;;;;;;;137525;1273;22189;-82
2023/04/17 07:34:09;;;;;;;;;;;;;;;;;;137491;1265;22289;-83
2023/04/17 07:37:10;;;;;;;;;;;;;;;;;;137583;1273;22397;-83
2023/04/17 07:40:13;;;;;;;;;;;;;;;;;;137505;1273;22157;-83
2023/04/17 07:43:17;;;;;;;;;;;;;;;;;;137509;1262;22183;-84
2023/04/17 07:46:18;;;;;;;;;;;;;;;;;;137538;1273;22198;-85
2023/04/17 07:49:19;;;;;;;;;;;;;;;;;;137470;1267;22205;-83
2023/04/17 07:52:21;;;;;;;;;;;;;;;;;;137474;1273;22239;-83
2023/04/17 07:55:22;;;;;;;;;;;;;;;;;;137495;1273;22361;-84
2023/04/17 07:58:23;;;;;;;;;;;;;;;;;;137510;1273;22642;-83
2023/04/17 08:01:25;;;;;;;;;;;;;;;;;;137504;1273;22280;-83
2023/04/17 08:04:26;;;;;;;;;;;;;;;;;;137469;1273;22713;-82
2023/04/17 08:07:29;;;;;;;;;;;;;;;;;;137500;1273;22367;-82
2023/04/17 08:10:30;;;;;;;;;;;;;;;;;;137496;1273;22647;-83
2023/04/17 08:13:31;;;;;;;;;;;;;;;;;;137478;1273;22278;-83
2023/04/17 08:16:32;;;;;;;;;;;;;;;;;;137484;1273;22241;-84
2023/04/17 08:19:34;;;;;;;;;;;;;;;;;;137583;1273;22739;-81
2023/04/17 08:22:36;;;;;;;;;;;;;;;;;;137534;1273;22985;-82
2023/04/17 08:25:38;;;;;;;;;;;;;;;;;;137537;1273;22257;-84
2023/04/17 08:28:52;;;;;;;;;;;;;;;;;;137528;1273;22225;-84
2023/04/17 08:31:54;;;;;;;;;;;;;;;;;;137546;1273;22337;-82
2023/04/17 08:34:55;;;;;;;;;;;;;;;;;;137485;1273;22176;-83
2023/04/17 08:37:57;;;;;;;;;;;;;;;;;;137559;1273;22345;-82
2023/04/17 08:40:59;;;;;;;;;;;;;;;;;;137581;1273;22181;-84
2023/04/17 08:44:00;;;;;;;;;;;;;;;;;;137616;1273;22376;-83
2023/04/17 08:47:03;;;;;;;;;;;;;;;;;;137558;1273;22167;-83
2023/04/17 08:50:04;;;;;;;;;;;;;;;;;;137528;1273;22172;-83
2023/04/17 08:53:05;;;;;;;;;;;;;;;;;;137494;1273;22192;-81
2023/04/17 08:56:06;;;;;;;;;;;;;;;;;;137544;1273;22570;-84
2023/04/17 08:59:07;;;;;;;;;;;;;;;;;;137579;1273;22274;-83
2023/04/17 09:02:09;;;;;;;;;;;;;;;;;;137554;1273;22273;-84
2023/04/17 09:05:10;;;;;;;;;;;;;;;;;;137607;1273;22303;-84
2023/04/17 09:08:11;;;;;;;;;;;;;;;;;;137570;1273;22368;-83
2023/04/17 09:11:12;;;;;;;;;;;;;;;;;;137532;1273;22189;-85
2023/04/17 09:14:13;;;;;;;;;;;;;;;;;;137587;1264;22387;-85
2023/04/17 09:17:16;;;;;;;;;;;;;;;;;;137504;1273;22256;-83
2023/04/17 09:20:17;;;;;;;;;;;;;;;;;;137494;1273;22255;-86
2023/04/17 09:23:18;;;;;;;;;;;;;;;;;;137487;1262;22192;-83
2023/04/17 09:26:19;;;;;;;;;;;;;;;;;;137527;1273;22691;-84
2023/04/17 09:29:20;;;;;;;;;;;;;;;;;;137570;1273;22290;-84
2023/04/17 09:32:22;;;;;;;;;;;;;;;;;;137499;1273;22165;-84
2023/04/17 09:35:25;;;;;;;;;;;;;;;;;;137560;1260;22361;-84
2023/04/17 09:38:26;;;;;;;;;;;;;;;;;;137521;1272;22431;-83
2023/04/17 09:41:28;;;;;;;;;;;;;;;;;;137530;1273;22292;-84
2023/04/17 09:44:29;;;;;;;;;;;;;;;;;;137461;1273;22261;-84
2023/04/17 09:47:30;;;;;;;;;;;;;;;;;;137475;1273;22196;-82
2023/04/17 09:50:31;;;;;;;;;;;;;;;;;;137499;1262;22237;-84
2023/04/17 09:53:32;;;;;;;;;;;;;;;;;;137522;1270;22200;-84
2023/04/17 09:56:34;;;;;;;;;;;;;;;;;;137503;1273;22190;-85
2023/04/17 09:59:35;;;;;;;;;;;;;;;;;;137461;1273;22907;-84
2023/04/17 10:02:36;;;;;;;;;;;;;;;;;;137496;1273;22159;-81
2023/04/17 10:05:37;;;;;;;;;;;;;;;;;;137488;1273;22772;-83
2023/04/17 10:08:41;;;;;;;;;;;;;;;;;;137529;1272;22264;-85
2023/04/17 10:11:42;;;;;;;;;;;;;;;;;;137518;1273;22536;-83
2023/04/17 10:14:45;;;;;;;;;;;;;;;;;;137533;1272;22381;-83
2023/04/17 10:17:48;;;;;;;;;;;;;;;;;;137541;1273;22322;-83
2023/04/17 10:20:49;;;;;;;;;;;;;;;;;;137527;1273;22201;-83
2023/04/17 10:23:50;;;;;;;;;;;;;;;;;;137554;1273;22357;-83
2023/04/17 10:26:52;;;;;;;;;;;;;;;;;;137545;1273;22196;-84
2023/04/17 10:29:53;;;;;;;;;;;;;;;;;;137576;1273;22272;-83
2023/04/17 10:32:54;;;;;;;;;;;;;;;;;;137625;1273;22607;-83
2023/04/17 10:35:56;;;;;;;;;;;;;;;;;;137593;1273;22401;-84
2023/04/17 10:38:57;;;;;;;;;;;;;;;;;;137571;1273;22382;-84
2023/04/17 10:42:00;;;;;;;;;;;;;;;;;;137565;1273;22292;-83
2023/04/17 10:45:03;;;;;;;;;;;;;;;;;;137495;1273;22883;-82
2023/04/17 10:48:04;;;;;;;;;;;;;;;;;;137574;1273;22618;-81
2023/04/17 10:51:06;;;;;;;;;;;;;;;;;;137545;1273;22656;-83
2023/04/17 10:54:09;;;;;;;;;;;;;;;;;;137529;1273;22188;-83
2023/04/17 10:57:16;;;;;;;;;;;;;;;;;;137570;1273;22656;-83
2023/04/17 11:00:17;;;;;;;;;;;;;;;;;;137571;1273;22368;-83
2023/04/17 11:03:19;;;;;;;;;;;;;;;;;;137645;1273;22285;-82
2023/04/17 11:06:20;;;;;;;;;;;;;;;;;;137570;1273;22356;-83
2023/04/17 11:09:23;;;;;;;;;;;;;;;;;;137603;1273;22278;-83
2023/04/17 11:12:24;;;;;;;;;;;;;;;;;;137565;1273;22136;-81
2023/04/17 11:15:28;;;;;;;;;;;;;;;;;;137584;1273;22273;-82
2023/04/17 11:18:33;;;;;;;;;;;;;;;;;;137598;1273;22414;-81
2023/04/17 11:21:35;;;;;;;;;;;;;;;;;;137606;1272;22887;-84
2023/04/17 11:24:42;;;;;;;;;;;;;;;;;;137608;1273;22968;-83
2023/04/17 11:27:47;;;;;;;;;;;;;;;;;;137539;1273;22829;-82
2023/04/17 11:30:48;;;;;;;;;;;;;;;;;;137501;1273;22763;-83
2023/04/17 11:33:50;;;;;;;;;;;;;;;;;;137457;1270;22293;-82
2023/04/17 11:36:51;;;;;;;;;;;;;;;;;;137476;1273;23304;-84
2023/04/17 11:40:00;;;;;;;;;;;;;;;;;;137546;1273;22265;-85
2023/04/17 11:43:16;;;;;;;;;;;;;;;;;;137519;1274;22592;-83
2023/04/17 11:46:18;;;;;;;;;;;;;;;;;;137476;1274;22343;-84
2023/04/17 11:52:45;;;;;;;;;;;;;;;;;;137010;1279;22425;-82
2023/04/17 11:55:50;;;;;;;;;;;;;;;;;;137024;1279;22455;-83
2023/04/17 11:59:03;;;;;;;;;;;;;;;;;;137012;1279;22307;-83
2023/04/17 12:02:05;;;;;;;;;;;;;;;;;;137021;1279;22433;-83
2023/04/17 12:05:07;;;;;;;;;;;;;;;;;;137093;1279;22268;-82
2023/04/17 12:08:08;;;;;;;;;;;;;;;;;;137144;1279;22421;-82
2023/04/17 12:14:35;;;;;;;;;;;;;;;;;;137082;1278;22518;-82
2023/04/17 12:17:36;;;;;;;;;;;;;;;;;;137101;1279;22443;-80
2023/04/17 12:20:38;;;;;;;;;;;;;;;;;;137157;1272;22439;-81
2023/04/17 12:23:39;;;;;;;;;;;;;;;;;;137217;1277;22418;-80
2023/04/17 12:26:40;;;;;;;;;;;;;;;;;;137113;1277;22320;-82
2023/04/17 12:29:41;;;;;;;;;;;;;;;;;;137402;1273;22402;-84
2023/04/17 12:32:47;;;;;;;;;;;;;;;;;;137454;1273;22214;-83
2023/04/17 12:35:48;;;;;;;;;;;;;;;;;;137513;1267;22398;-83
2023/04/17 12:38:50;;;;;;;;;;;;;;;;;;137442;1273;23065;-83
2023/04/17 12:41:55;;;;;;;;;;;;;;;;;;137488;1273;22164;-83
2023/04/17 12:48:17;;;;;;;;;;;;;;;;;;137421;1273;22417;-82
2023/04/17 12:51:39;;;;;;;;;;;;;;;;;;;;;
2023/04/17 12:58:29;;;;;;;;;;;;;;;;;;136973;1278;22468;-83
2023/04/17 13:01:45;;;;;;;;;;;;;;;;;;136983;1278;22408;-83
2023/04/17 13:04:55;;;;;;;;;;;;;;;;;;137006;1273;22379;-82
2023/04/17 13:08:03;;;;;;;;;;;;;;;;;;137033;1278;22417;-83
2023/04/17 13:14:50;;;;;;;;;;;;;;;;;;;;;
2023/04/17 13:24:43;;;;;;;;;;;;;;;;;;136730;1278;22416;-82
2023/04/17 13:31:06;;;;;;;;;;;;;;;;;;137525;1273;22167;-83
2023/04/17 13:34:15;;;;;;;;;;;;;;;;;;137559;1273;22291;-83
2023/04/17 13:37:24;;;;;;;;;;;;;;;;;;137520;1273;22412;-84
2023/04/17 13:40:29;;;;;;;;;;;;;;;;;;137646;1273;22378;-83
2023/04/17 13:43:30;;;;;;;;;;;;;;;;;;137537;1273;22427;-82
2023/04/17 13:46:35;;;;;;;;;;;;;;;;;;137674;1265;22295;-83
2023/04/17 13:49:42;;;;;;;;;;;;;;;;;;137538;1273;22885;-82
2023/04/17 13:52:44;;;;;;;;;;;;;;;;;;137605;1266;22380;-82
2023/04/17 13:55:47;;;;;;;;;;;;;;;;;;137608;1273;22367;-83
2023/04/17 13:58:51;;;;;;;;;;;;;;;;;;137640;1273;22168;-84
2023/04/17 14:01:58;;;;;;;;;;;;;;;;;;137621;1273;22348;-84
2023/04/17 14:05:06;;;;;;;;;;;;;;;;;;137625;1265;22396;-84
2023/04/17 14:08:12;;;;;;;;;;;;;;;;;;137620;1273;22885;-84
2023/04/17 14:11:18;;;;;;;;;;;;;;;;;;137626;1273;22201;-85
2023/04/17 14:14:19;;;;;;;;;;;;;;;;;;137585;1273;22725;-84
2023/04/17 14:17:20;;;;;;;;;;;;;;;;;;137645;1273;22244;-82
2023/04/17 14:20:22;;;;;;;;;;;;;;;;;;137641;1272;22273;-83
2023/04/17 14:23:23;;;;;;;;;;;;;;;;;;137648;1273;22234;-84
2023/04/17 14:26:24;;;;;;;;;;;;;;;;;;137655;1273;22211;-83
2023/04/17 14:29:26;;;;;;;;;;;;;;;;;;137670;1273;22160;-83
2023/04/17 14:32:27;;;;;;;;;;;;;;;;;;137681;1273;22265;-81
2023/04/17 14:35:28;;;;;;;;;;;;;;;;;;137675;1273;22770;-83
2023/04/17 14:38:38;;;;;;;;;;;;;;;;;;137612;1273;22403;-83
2023/04/17 14:41:39;;;;;;;;;;;;;;;;;;137683;1273;22672;-83
2023/04/17 14:44:42;;;;;;;;;;;;;;;;;;137603;1273;22244;-83
2023/04/17 14:47:44;;;;;;;;;;;;;;;;;;137618;1273;22837;-83
2023/04/17 14:50:53;;;;;;;;;;;;;;;;;;137624;1273;22216;-83
2023/04/17 14:53:54;;;;;;;;;;;;;;;;;;137642;1273;22264;-82
2023/04/17 14:56:56;;;;;;;;;;;;;;;;;;137639;1268;22227;-83
2023/04/17 14:59:58;;;;;;;;;;;;;;;;;;137640;1273;22203;-82
2023/04/17 15:02:59;;;;;;;;;;;;;;;;;;137584;1273;22299;-83
2023/04/17 15:06:01;;;;;;;;;;;;;;;;;;137617;1273;22911;-82
2023/04/17 15:09:05;;;;;;;;;;;;;;;;;;137675;1273;22430;-83
2023/04/17 15:12:07;;;;;;;;;;;;;;;;;;137632;1273;22203;-82
2023/04/17 15:15:10;;;;;;;;;;;;;;;;;;137618;1273;22363;-81
2023/04/17 15:18:12;;;;;;;;;;;;;;;;;;137648;1273;22389;-83
2023/04/17 15:21:14;;;;;;;;;;;;;;;;;;137645;1273;22295;-83
2023/04/17 15:24:23;;;;;;;;;;;;;;;;;;137673;1273;22280;-84
2023/04/17 15:27:44;;;;;;;;;;;;;;;;;;137632;1273;22663;-84
2023/04/17 15:30:45;;;;;;;;;;;;;;;;;;137642;1273;22264;-83
2023/04/17 15:33:46;;;;;;;;;;;;;;;;;;137631;1273;22215;-82
2023/04/17 15:36:50;;;;;;;;;;;;;;;;;;137634;1273;22287;-83
2023/04/17 15:39:55;;;;;;;;;;;;;;;;;;137653;1273;22191;-84
2023/04/17 15:43:03;;;;;;;;;;;;;;;;;;137641;1273;22239;-84
2023/04/17 15:46:07;;;;;;;;;;;;;;;;;;137633;1273;22204;-82
2023/04/17 15:49:09;;;;;;;;;;;;;;;;;;137652;1273;22704;-83
2023/04/17 15:52:10;;;;;;;;;;;;;;;;;;137614;1273;22208;-83
2023/04/17 15:55:16;;;;;;;;;;;;;;;;;;137677;1273;22319;-83
2023/04/17 15:58:28;;;;;;;;;;;;;;;;;;137619;1273;22278;-82
2023/04/17 16:01:29;;;;;;;;;;;;;;;;;;137619;1273;22200;-83
2023/04/17 16:04:33;;;;;;;;;;;;;;;;;;137616;1273;22215;-82
2023/04/17 16:07:35;;;;;;;;;;;;;;;;;;137664;1273;22303;-83
2023/04/17 16:10:39;;;;;;;;;;;;;;;;;;137643;1273;22285;-84
2023/04/17 16:13:40;;;;;;;;;;;;;;;;;;137629;1273;22284;-84
2023/04/17 16:16:41;;;;;;;;;;;;;;;;;;137642;1273;22837;-82
2023/04/17 16:19:42;;;;;;;;;;;;;;;;;;137638;1273;22289;-83
2023/04/17 16:22:43;;;;;;;;;;;;;;;;;;137663;1273;22274;-83
2023/04/17 16:25:45;;;;;;;;;;;;;;;;;;137600;1273;22220;-83
2023/04/17 16:28:46;;;;;;;;;;;;;;;;;;137584;1273;22267;-83
2023/04/17 16:31:47;;;;;;;;;;;;;;;;;;137616;1273;22190;-82
2023/04/17 16:34:48;;;;;;;;;;;;;;;;;;137616;1273;22310;-82
2023/04/17 16:37:49;;;;;;;;;;;;;;;;;;137600;1273;22278;-83
2023/04/17 16:40:55;;;;;;;;;;;;;;;;;;137666;1273;22241;-83
2023/04/17 16:43:59;;;;;;;;;;;;;;;;;;137620;1273;22200;-83
2023/04/17 16:47:07;;;;;;;;;;;;;;;;;;137666;1273;22388;-82
2023/04/17 16:50:08;;;;;;;;;;;;;;;;;;137713;1273;22282;-81
2023/04/17 16:53:10;;;;;;;;;;;;;;;;;;137704;1273;22287;-83
2023/04/17 16:56:13;;;;;;;;;;;;;;;;;;137649;1273;22274;-84
2023/04/17 16:59:20;;;;;;;;;;;;;;;;;;137652;1273;22384;-83
2023/04/17 17:02:21;;;;;;;;;;;;;;;;;;137673;1273;22309;-82
2023/04/17 17:05:22;;;;;;;;;;;;;;;;;;137626;1273;22269;-78
2023/04/17 17:08:23;;;;;;;;;;;;;;;;;;137584;1273;22401;-78
2023/04/17 17:11:24;;;;;;;;;;;;;;;;;;137557;1273;22269;-78
2023/04/17 17:14:27;;;;;;;;;;;;;;;;;;137574;1273;22992;-80
2023/04/17 17:17:28;;;;;;;;;;;;;;;;;;137638;1273;22814;-82
2023/04/17 17:20:29;;;;;;;;;;;;;;;;;;137617;1273;22248;-82
2023/04/17 17:23:31;;;;;;;;;;;;;;;;;;137594;1273;22188;-82
2023/04/17 17:26:32;;;;;;;;;;;;;;;;;;137566;1273;22276;-83
2023/04/17 17:29:33;;;;;;;;;;;;;;;;;;137608;1273;22263;-82
2023/04/17 17:32:34;;;;;;;;;;;;;;;;;;137603;1273;22431;-80
2023/04/17 17:35:35;;;;;;;;;;;;;;;;;;137532;1272;22379;-81
2023/04/17 17:38:36;;;;;;;;;;;;;;;;;;137617;1273;22740;-80
2023/04/17 17:41:39;;;;;;;;;;;;;;;;;;137599;1273;22286;-81
2023/04/17 17:44:40;;;;;;;;;;;;;;;;;;137592;1273;22327;-80
2023/04/17 17:47:41;;;;;;;;;;;;;;;;;;137613;1273;22369;-81
2023/04/17 17:50:42;;;;;;;;;;;;;;;;;;137607;1273;22281;-81
2023/04/17 17:53:44;;;;;;;;;;;;;;;;;;137580;1273;22303;-81
2023/04/17 17:56:45;;;;;;;;;;;;;;;;;;137592;1273;22275;-81
2023/04/17 17:59:46;;;;;;;;;;;;;;;;;;137588;1273;22242;-80
2023/04/17 18:02:47;;;;;;;;;;;;;;;;;;137567;1273;22270;-80
2023/04/17 18:05:48;;;;;;;;;;;;;;;;;;137558;1273;22333;-80
2023/04/17 18:08:51;;;;;;;;;;;;;;;;;;137601;1273;22274;-81
2023/04/17 18:11:52;;;;;;;;;;;;;;;;;;137621;1273;22685;-82
2023/04/17 18:14:53;;;;;;;;;;;;;;;;;;137620;1273;22278;-81
2023/04/17 18:17:54;;;;;;;;;;;;;;;;;;137638;1273;22434;-81
2023/04/17 18:20:55;;;;;;;;;;;;;;;;;;137678;1273;22201;-81
2023/04/17 18:23:56;;;;;;;;;;;;;;;;;;137619;1273;22281;-82
2023/04/17 18:26:57;;;;;;;;;;;;;;;;;;137616;1273;22281;-81
2023/04/17 18:29:58;;;;;;;;;;;;;;;;;;137635;1273;22263;-82
2023/04/17 18:32:59;;;;;;;;;;;;;;;;;;137645;1273;22265;-82
2023/04/17 18:36:00;;;;;;;;;;;;;;;;;;137638;1273;22316;-82
2023/04/17 18:39:02;;;;;;;;;;;;;;;;;;137607;1273;22880;-82
2023/04/17 18:42:06;;;;;;;;;;;;;;;;;;137641;1273;22271;-82
2023/04/17 18:45:09;;;;;;;;;;;;;;;;;;137644;1273;22275;-82
2023/04/17 18:48:10;;;;;;;;;;;;;;;;;;137661;1273;22363;-82
2023/04/17 18:51:11;;;;;;;;;;;;;;;;;;137632;1273;22783;-83
2023/04/17 18:54:12;;;;;;;;;;;;;;;;;;137637;1273;22266;-82
2023/04/17 18:57:13;;;;;;;;;;;;;;;;;;137674;1273;22290;-81
2023/04/17 19:00:14;;;;;;;;;;;;;;;;;;137674;1273;22242;-83
2023/04/17 19:03:15;;;;;;;;;;;;;;;;;;137665;1273;22195;-82
2023/04/17 19:06:16;;;;;;;;;;;;;;;;;;137645;1273;22260;-83
2023/04/17 19:09:17;;;;;;;;;;;;;;;;;;137619;1273;22259;-84
2023/04/17 19:12:18;;;;;;;;;;;;;;;;;;137501;1273;215391;-82
2023/04/17 19:15:20;;;;;;;;;;;;;;;;;;137575;1273;22275;-82
2023/04/17 19:18:21;;;;;;;;;;;;;;;;;;137623;1273;22364;-82
2023/04/17 19:21:22;;;;;;;;;;;;;;;;;;137650;1273;22257;-81
2023/04/17 19:24:23;;;;;;;;;;;;;;;;;;137635;1273;22189;-82
2023/04/17 19:27:24;;;;;;;;;;;;;;;;;;137629;1273;22272;-82
2023/04/17 19:30:25;;;;;;;;;;;;;;;;;;137600;1273;22264;-83
2023/04/17 19:33:26;;;;;;;;;;;;;;;;;;137632;1273;22202;-83
2023/04/17 19:36:27;;;;;;;;;;;;;;;;;;137605;1273;22205;-83
2023/04/17 19:39:28;;;;;;;;;;;;;;;;;;137646;1267;22347;-82
2023/04/17 19:42:30;;;;;;;;;;;;;;;;;;137624;1273;22236;-83
2023/04/17 19:45:31;;;;;;;;;;;;;;;;;;137638;1273;22329;-83
2023/04/17 19:48:32;;;;;;;;;;;;;;;;;;137629;1273;22383;-83
2023/04/17 19:51:33;;;;;;;;;;;;;;;;;;137678;1270;22205;-84
2023/04/17 19:54:34;;;;;;;;;;;;;;;;;;137633;1273;22752;-83
2023/04/17 19:57:35;;;;;;;;;;;;;;;;;;137629;1273;22258;-83
2023/04/17 20:00:36;;;;;;;;;;;;;;;;;;137657;1273;22185;-84
2023/04/17 20:03:38;;;;;;;;;;;;;;;;;;137560;1273;22646;-83
2023/04/17 20:06:39;;;;;;;;;;;;;;;;;;137566;1273;22361;-82
2023/04/17 20:09:40;;;;;;;;;;;;;;;;;;137539;1273;22255;-82
2023/04/17 20:12:41;;;;;;;;;;;;;;;;;;137572;1267;22569;-83
2023/04/17 20:15:42;;;;;;;;;;;;;;;;;;137563;1273;22265;-83
2023/04/17 20:18:44;;;;;;;;;;;;;;;;;;137584;1273;22398;-82
2023/04/17 20:21:46;;;;;;;;;;;;;;;;;;137580;1273;22697;-82
2023/04/17 20:24:49;;;;;;;;;;;;;;;;;;137743;1273;22657;-82
2023/04/17 20:27:50;;;;;;;;;;;;;;;;;;137628;1273;22270;-83
2023/04/17 20:30:51;;;;;;;;;;;;;;;;;;137602;1273;22512;-83
2023/04/17 20:33:52;;;;;;;;;;;;;;;;;;137621;1273;22732;-83
2023/04/17 20:36:57;;;;;;;;;;;;;;;;;;137605;1273;22270;-83
2023/04/17 20:39:58;;;;;;;;;;;;;;;;;;137671;1273;22386;-85
2023/04/17 20:43:01;;;;;;;;;;;;;;;;;;137626;1273;22393;-84
2023/04/17 20:46:04;;;;;;;;;;;;;;;;;;137592;1273;22293;-83
2023/04/17 20:49:05;;;;;;;;;;;;;;;;;;137619;1273;22383;-84
2023/04/17 20:52:07;;;;;;;;;;;;;;;;;;137639;1273;23116;-83